sensor_id;sensor_type;location;lat;lon;timestamp;temperature;humidity
3478;DHT22;37937;61.490;23.506;2023-02-28T00:01:19;1.30;99.90
3478;DHT22;37937;61.490;23.506;2023-02-28T00:03:45;1.30;99.90
3478;DHT22;37937;61.490;23.506;2023-02-28T00:06:11;1.30;99.90
3478;DHT22;37937;61.490;23.506;2023-02-28T00:08:37;1.40;99.90
3478;DHT22;37937;61.490;23.506;2023-02-28T00:11:03;1.40;99.90
3478;DHT22;37937;61.490;23.506;2023-02-28T00:13:29;1.30;99.90
3478;DHT22;37937;61.490;23.506;2023-02-28T00:15:59;1.30;99.90
3478;DHT22;37937;61.490;23.506;2023-02-28T00:18:25;1.30;99.90
3478;DHT22;37937;61.490;23.506;2023-02-28T00:20:51;1.20;99.90
3478;DHT22;37937;61.490;23.506;2023-02-28T00:23:17;1.20;99.90
3478;DHT22;37937;61.490;23.506;2023-02-28T00:25:43;1.20;99.90
3478;DHT22;37937;61.490;23.506;2023-02-28T00:28:08;1.20;99.90
3478;DHT22;37937;61.490;23.506;2023-02-28T00:30:34;1.20;99.90
3478;DHT22;37937;61.490;23.506;2023-02-28T00:33:00;1.20;99.90
3478;DHT22;37937;61.490;23.506;2023-02-28T00:35:25;1.20;99.90
3478;DHT22;37937;61.490;23.506;2023-02-28T00:37:51;1.10;99.90
3478;DHT22;37937;61.490;23.506;2023-02-28T00:40:17;1.10;99.90
3478;DHT22;37937;61.490;23.506;2023-02-28T00:42:42;1.20;99.90
3478;DHT22;37937;61.490;23.506;2023-02-28T00:45:09;1.10;99.90
3478;DHT22;37937;61.490;23.506;2023-02-28T00:47:35;1.10;99.90
3478;DHT22;37937;61.490;23.506;2023-02-28T00:50:01;1.10;99.90
3478;DHT22;37937;61.490;23.506;2023-02-28T00:52:27;1.10;99.90
3478;DHT22;37937;61.490;23.506;2023-02-28T00:54:52;1.00;99.90
3478;DHT22;37937;61.490;23.506;2023-02-28T00:57:18;1.00;99.90
3478;DHT22;37937;61.490;23.506;2023-02-28T00:59:44;1.00;99.90
3478;DHT22;37937;61.490;23.506;2023-02-28T01:02:10;1.00;99.90
3478;DHT22;37937;61.490;23.506;2023-02-28T01:04:36;1.00;99.90
3478;DHT22;37937;61.490;23.506;2023-02-28T01:07:03;1.00;99.90
3478;DHT22;37937;61.490;23.506;2023-02-28T01:09:29;1.00;99.90
3478;DHT22;37937;61.490;23.506;2023-02-28T01:11:55;1.00;99.90
3478;DHT22;37937;61.490;23.506;2023-02-28T01:14:20;1.00;99.90
3478;DHT22;37937;61.490;23.506;2023-02-28T01:16:47;1.00;99.90
3478;DHT22;37937;61.490;23.506;2023-02-28T01:19:13;1.00;99.90
3478;DHT22;37937;61.490;23.506;2023-02-28T01:21:39;1.00;99.90
3478;DHT22;37937;61.490;23.506;2023-02-28T01:24:04;1.00;99.90
3478;DHT22;37937;61.490;23.506;2023-02-28T01:26:31;0.90;99.90
3478;DHT22;37937;61.490;23.506;2023-02-28T01:28:57;1.00;99.90
3478;DHT22;37937;61.490;23.506;2023-02-28T01:31:24;1.10;99.90
3478;DHT22;37937;61.490;23.506;2023-02-28T01:33:50;1.10;99.90
3478;DHT22;37937;61.490;23.506;2023-02-28T01:36:18;1.10;99.90
3478;DHT22;37937;61.490;23.506;2023-02-28T01:38:44;1.00;99.90
3478;DHT22;37937;61.490;23.506;2023-02-28T01:41:14;1.00;99.90
3478;DHT22;37937;61.490;23.506;2023-02-28T01:46:09;1.00;99.90
3478;DHT22;37937;61.490;23.506;2023-02-28T01:48:40;0.90;99.90
3478;DHT22;37937;61.490;23.506;2023-02-28T01:51:12;0.90;99.90
3478;DHT22;37937;61.490;23.506;2023-02-28T01:53:41;0.80;99.90
3478;DHT22;37937;61.490;23.506;2023-02-28T01:56:08;0.80;99.90
3478;DHT22;37937;61.490;23.506;2023-02-28T01:58:35;0.80;99.90
3478;DHT22;37937;61.490;23.506;2023-02-28T02:01:01;0.80;99.90
3478;DHT22;37937;61.490;23.506;2023-02-28T02:03:28;0.70;99.90
3478;DHT22;37937;61.490;23.506;2023-02-28T02:05:54;0.80;99.90
3478;DHT22;37937;61.490;23.506;2023-02-28T02:08:21;0.90;99.90
3478;DHT22;37937;61.490;23.506;2023-02-28T02:10:58;0.90;99.90
3478;DHT22;37937;61.490;23.506;2023-02-28T02:13:30;0.80;99.90
3478;DHT22;37937;61.490;23.506;2023-02-28T02:41:46;1.20;99.90
3478;DHT22;37937;61.490;23.506;2023-02-28T02:44:18;1.20;99.90
3478;DHT22;37937;61.490;23.506;2023-02-28T02:46:47;1.10;99.90
3478;DHT22;37937;61.490;23.506;2023-02-28T02:49:20;1.10;99.90
3478;DHT22;37937;61.490;23.506;2023-02-28T02:51:46;1.00;99.90
3478;DHT22;37937;61.490;23.506;2023-02-28T02:54:14;1.00;99.90
3478;DHT22;37937;61.490;23.506;2023-02-28T02:56:42;1.00;99.90
3478;DHT22;37937;61.490;23.506;2023-02-28T02:59:09;1.00;99.90
3478;DHT22;37937;61.490;23.506;2023-02-28T03:01:36;1.10;99.90
3478;DHT22;37937;61.490;23.506;2023-02-28T03:04:07;1.10;99.90
3478;DHT22;37937;61.490;23.506;2023-02-28T03:06:33;1.10;99.90
3478;DHT22;37937;61.490;23.506;2023-02-28T03:09:00;1.10;99.90
3478;DHT22;37937;61.490;23.506;2023-02-28T03:11:26;1.20;99.90
3478;DHT22;37937;61.490;23.506;2023-02-28T03:14:03;1.20;99.90
3478;DHT22;37937;61.490;23.506;2023-02-28T03:21:36;1.50;99.90
3478;DHT22;37937;61.490;23.506;2023-02-28T03:26:33;1.50;99.90
3478;DHT22;37937;61.490;23.506;2023-02-28T03:31:32;1.70;99.90
3478;DHT22;37937;61.490;23.506;2023-02-28T03:36:36;1.80;99.90
3478;DHT22;37937;61.490;23.506;2023-02-28T03:39:11;1.90;99.90
3478;DHT22;37937;61.490;23.506;2023-02-28T03:41:42;1.90;99.90
3478;DHT22;37937;61.490;23.506;2023-02-28T03:44:10;1.80;99.90
3478;DHT22;37937;61.490;23.506;2023-02-28T03:46:42;1.90;99.90
3478;DHT22;37937;61.490;23.506;2023-02-28T03:49:17;1.90;99.90
3478;DHT22;37937;61.490;23.506;2023-02-28T03:51:44;2.00;99.90
3478;DHT22;37937;61.490;23.506;2023-02-28T03:54:13;1.90;99.90
3478;DHT22;37937;61.490;23.506;2023-02-28T03:57:15;1.90;99.90
3478;DHT22;37937;61.490;23.506;2023-02-28T03:59:37;2.00;99.90
3478;DHT22;37937;61.490;23.506;2023-02-28T04:02:04;2.00;99.90
3478;DHT22;37937;61.490;23.506;2023-02-28T04:04:30;1.90;99.90
3478;DHT22;37937;61.490;23.506;2023-02-28T04:07:04;2.00;99.90
3478;DHT22;37937;61.490;23.506;2023-02-28T04:09:30;1.90;99.90
3478;DHT22;37937;61.490;23.506;2023-02-28T04:11:55;2.00;99.90
3478;DHT22;37937;61.490;23.506;2023-02-28T04:14:21;2.00;99.90
3478;DHT22;37937;61.490;23.506;2023-02-28T04:16:47;2.00;99.90
3478;DHT22;37937;61.490;23.506;2023-02-28T04:19:13;1.90;99.90
3478;DHT22;37937;61.490;23.506;2023-02-28T04:21:43;1.90;99.90
3478;DHT22;37937;61.490;23.506;2023-02-28T04:24:10;1.90;99.90
3478;DHT22;37937;61.490;23.506;2023-02-28T04:26:40;1.80;99.90
3478;DHT22;37937;61.490;23.506;2023-02-28T04:29:06;1.80;99.90
3478;DHT22;37937;61.490;23.506;2023-02-28T04:31:32;1.70;99.90
3478;DHT22;37937;61.490;23.506;2023-02-28T04:33:58;1.70;99.90
3478;DHT22;37937;61.490;23.506;2023-02-28T04:36:24;1.60;99.90
3478;DHT22;37937;61.490;23.506;2023-02-28T04:38:50;1.60;99.90
3478;DHT22;37937;61.490;23.506;2023-02-28T04:41:16;1.50;99.90
3478;DHT22;37937;61.490;23.506;2023-02-28T04:43:41;1.50;99.90
3478;DHT22;37937;61.490;23.506;2023-02-28T04:46:07;1.60;99.90
3478;DHT22;37937;61.490;23.506;2023-02-28T04:48:34;1.50;99.90
3478;DHT22;37937;61.490;23.506;2023-02-28T04:51:00;1.50;99.90
3478;DHT22;37937;61.490;23.506;2023-02-28T04:53:27;1.50;99.90
3478;DHT22;37937;61.490;23.506;2023-02-28T04:55:52;1.40;99.90
3478;DHT22;37937;61.490;23.506;2023-02-28T04:58:18;1.40;99.90
3478;DHT22;37937;61.490;23.506;2023-02-28T05:00:43;1.40;99.90
3478;DHT22;37937;61.490;23.506;2023-02-28T05:03:09;1.30;99.90
3478;DHT22;37937;61.490;23.506;2023-02-28T05:05:35;1.30;99.90
3478;DHT22;37937;61.490;23.506;2023-02-28T05:08:00;1.30;99.90
3478;DHT22;37937;61.490;23.506;2023-02-28T05:10:26;1.30;99.90
3478;DHT22;37937;61.490;23.506;2023-02-28T05:12:52;1.30;99.90
3478;DHT22;37937;61.490;23.506;2023-02-28T05:15:18;1.30;99.90
3478;DHT22;37937;61.490;23.506;2023-02-28T05:17:43;1.20;99.90
3478;DHT22;37937;61.490;23.506;2023-02-28T05:20:10;1.20;99.90
3478;DHT22;37937;61.490;23.506;2023-02-28T05:22:37;1.20;99.90
3478;DHT22;37937;61.490;23.506;2023-02-28T05:25:03;1.10;99.90
3478;DHT22;37937;61.490;23.506;2023-02-28T05:27:29;1.20;99.90
3478;DHT22;37937;61.490;23.506;2023-02-28T05:29:55;1.20;99.90
3478;DHT22;37937;61.490;23.506;2023-02-28T05:32:21;1.10;99.90
3478;DHT22;37937;61.490;23.506;2023-02-28T05:34:47;1.10;99.90
3478;DHT22;37937;61.490;23.506;2023-02-28T05:37:13;1.10;99.90
3478;DHT22;37937;61.490;23.506;2023-02-28T05:39:39;1.10;99.90
3478;DHT22;37937;61.490;23.506;2023-02-28T05:42:05;1.10;99.90
3478;DHT22;37937;61.490;23.506;2023-02-28T05:44:30;1.10;99.90
3478;DHT22;37937;61.490;23.506;2023-02-28T05:46:56;1.00;99.90
3478;DHT22;37937;61.490;23.506;2023-02-28T05:49:21;1.00;99.90
3478;DHT22;37937;61.490;23.506;2023-02-28T05:51:47;1.00;99.90
3478;DHT22;37937;61.490;23.506;2023-02-28T05:54:13;1.00;99.90
3478;DHT22;37937;61.490;23.506;2023-02-28T05:56:38;1.10;99.90
3478;DHT22;37937;61.490;23.506;2023-02-28T05:59:05;1.00;99.90
3478;DHT22;37937;61.490;23.506;2023-02-28T06:03:57;1.00;99.90
3478;DHT22;37937;61.490;23.506;2023-02-28T06:06:23;1.00;99.90
3478;DHT22;37937;61.490;23.506;2023-02-28T06:08:48;1.00;99.90
3478;DHT22;37937;61.490;23.506;2023-02-28T06:11:14;0.90;99.90
3478;DHT22;37937;61.490;23.506;2023-02-28T06:13:40;0.90;99.90
3478;DHT22;37937;61.490;23.506;2023-02-28T06:16:06;0.90;99.90
3478;DHT22;37937;61.490;23.506;2023-02-28T06:18:32;1.00;99.90
3478;DHT22;37937;61.490;23.506;2023-02-28T06:20:57;1.00;99.90
3478;DHT22;37937;61.490;23.506;2023-02-28T06:23:23;1.10;99.90
3478;DHT22;37937;61.490;23.506;2023-02-28T06:25:49;1.10;99.90
3478;DHT22;37937;61.490;23.506;2023-02-28T06:28:14;1.10;99.90
3478;DHT22;37937;61.490;23.506;2023-02-28T06:30:40;1.20;99.90
3478;DHT22;37937;61.490;23.506;2023-02-28T06:33:06;1.20;99.90
3478;DHT22;37937;61.490;23.506;2023-02-28T06:35:31;1.20;99.90
3478;DHT22;37937;61.490;23.506;2023-02-28T06:37:57;1.20;99.90
3478;DHT22;37937;61.490;23.506;2023-02-28T06:40:23;1.20;99.90
3478;DHT22;37937;61.490;23.506;2023-02-28T06:42:48;1.40;99.90
3478;DHT22;37937;61.490;23.506;2023-02-28T06:45:14;1.40;99.90
3478;DHT22;37937;61.490;23.506;2023-02-28T06:47:40;1.40;99.90
3478;DHT22;37937;61.490;23.506;2023-02-28T06:50:07;1.40;99.90
3478;DHT22;37937;61.490;23.506;2023-02-28T06:52:33;1.40;99.90
3478;DHT22;37937;61.490;23.506;2023-02-28T06:55:01;1.40;99.90
3478;DHT22;37937;61.490;23.506;2023-02-28T06:57:28;1.40;99.90
3478;DHT22;37937;61.490;23.506;2023-02-28T06:59:57;1.50;99.90
3478;DHT22;37937;61.490;23.506;2023-02-28T07:02:22;1.50;99.90
3478;DHT22;37937;61.490;23.506;2023-02-28T07:04:48;1.50;99.90
3478;DHT22;37937;61.490;23.506;2023-02-28T07:07:14;1.50;99.90
3478;DHT22;37937;61.490;23.506;2023-02-28T07:09:39;1.50;99.90
3478;DHT22;37937;61.490;23.506;2023-02-28T07:12:05;1.40;99.90
3478;DHT22;37937;61.490;23.506;2023-02-28T07:14:30;1.50;99.90
3478;DHT22;37937;61.490;23.506;2023-02-28T07:16:56;1.50;99.90
3478;DHT22;37937;61.490;23.506;2023-02-28T07:19:22;1.50;99.90
3478;DHT22;37937;61.490;23.506;2023-02-28T07:21:47;1.50;99.90
3478;DHT22;37937;61.490;23.506;2023-02-28T07:24:13;1.50;99.90
3478;DHT22;37937;61.490;23.506;2023-02-28T07:26:41;1.50;99.90
3478;DHT22;37937;61.490;23.506;2023-02-28T07:29:06;1.50;99.90
3478;DHT22;37937;61.490;23.506;2023-02-28T07:31:32;1.50;99.90
3478;DHT22;37937;61.490;23.506;2023-02-28T07:33:57;1.50;99.90
3478;DHT22;37937;61.490;23.506;2023-02-28T07:36:23;1.50;99.90
3478;DHT22;37937;61.490;23.506;2023-02-28T07:38:49;1.40;99.90
3478;DHT22;37937;61.490;23.506;2023-02-28T07:41:15;1.50;99.90
3478;DHT22;37937;61.490;23.506;2023-02-28T07:43:41;1.40;99.90
3478;DHT22;37937;61.490;23.506;2023-02-28T07:46:08;1.50;99.90
3478;DHT22;37937;61.490;23.506;2023-02-28T07:48:34;1.40;99.90
3478;DHT22;37937;61.490;23.506;2023-02-28T07:51:00;1.50;99.90
3478;DHT22;37937;61.490;23.506;2023-02-28T07:53:26;1.50;99.90
3478;DHT22;37937;61.490;23.506;2023-02-28T07:55:58;1.50;99.90
3478;DHT22;37937;61.490;23.506;2023-02-28T07:58:25;1.50;99.90
3478;DHT22;37937;61.490;23.506;2023-02-28T08:00:51;1.50;99.90
3478;DHT22;37937;61.490;23.506;2023-02-28T08:03:20;1.60;99.90
3478;DHT22;37937;61.490;23.506;2023-02-28T08:05:46;1.50;99.90
3478;DHT22;37937;61.490;23.506;2023-02-28T08:08:11;1.50;99.90
3478;DHT22;37937;61.490;23.506;2023-02-28T08:10:37;1.40;99.90
3478;DHT22;37937;61.490;23.506;2023-02-28T08:13:03;1.50;99.90
3478;DHT22;37937;61.490;23.506;2023-02-28T08:15:28;1.40;99.90
3478;DHT22;37937;61.490;23.506;2023-02-28T08:17:54;1.40;99.90
3478;DHT22;37937;61.490;23.506;2023-02-28T08:20:21;1.50;99.90
3478;DHT22;37937;61.490;23.506;2023-02-28T08:22:47;1.50;99.90
3478;DHT22;37937;61.490;23.506;2023-02-28T08:25:13;1.60;99.90
3478;DHT22;37937;61.490;23.506;2023-02-28T08:27:38;1.60;99.90
3478;DHT22;37937;61.490;23.506;2023-02-28T08:30:04;1.70;99.90
3478;DHT22;37937;61.490;23.506;2023-02-28T08:32:31;1.60;99.90
3478;DHT22;37937;61.490;23.506;2023-02-28T08:34:57;1.50;99.90
3478;DHT22;37937;61.490;23.506;2023-02-28T08:37:22;1.40;99.90
3478;DHT22;37937;61.490;23.506;2023-02-28T08:39:48;1.50;99.90
3478;DHT22;37937;61.490;23.506;2023-02-28T08:42:14;1.40;99.90
3478;DHT22;37937;61.490;23.506;2023-02-28T08:44:39;1.40;99.90
3478;DHT22;37937;61.490;23.506;2023-02-28T08:47:06;1.40;99.90
3478;DHT22;37937;61.490;23.506;2023-02-28T08:49:31;1.30;99.90
3478;DHT22;37937;61.490;23.506;2023-02-28T08:51:57;1.30;99.90
3478;DHT22;37937;61.490;23.506;2023-02-28T08:54:23;1.20;99.90
3478;DHT22;37937;61.490;23.506;2023-02-28T08:56:48;1.20;99.90
3478;DHT22;37937;61.490;23.506;2023-02-28T08:59:14;1.20;99.90
3478;DHT22;37937;61.490;23.506;2023-02-28T09:01:40;1.20;99.90
3478;DHT22;37937;61.490;23.506;2023-02-28T09:04:06;1.30;99.90
3478;DHT22;37937;61.490;23.506;2023-02-28T09:06:33;1.10;99.90
3478;DHT22;37937;61.490;23.506;2023-02-28T09:08:59;1.10;99.90
3478;DHT22;37937;61.490;23.506;2023-02-28T09:11:26;1.10;99.90
3478;DHT22;37937;61.490;23.506;2023-02-28T09:13:52;1.00;99.90
3478;DHT22;37937;61.490;23.506;2023-02-28T09:16:18;1.00;99.90
3478;DHT22;37937;61.490;23.506;2023-02-28T09:18:43;1.10;99.90
3478;DHT22;37937;61.490;23.506;2023-02-28T09:21:10;1.10;99.90
3478;DHT22;37937;61.490;23.506;2023-02-28T09:23:38;1.20;99.90
3478;DHT22;37937;61.490;23.506;2023-02-28T09:26:04;1.00;99.90
3478;DHT22;37937;61.490;23.506;2023-02-28T09:28:30;1.10;99.90
3478;DHT22;37937;61.490;23.506;2023-02-28T09:30:56;1.20;99.90
3478;DHT22;37937;61.490;23.506;2023-02-28T09:33:24;1.20;99.90
3478;DHT22;37937;61.490;23.506;2023-02-28T09:35:50;1.50;99.90
3478;DHT22;37937;61.490;23.506;2023-02-28T09:38:16;1.60;99.90
3478;DHT22;37937;61.490;23.506;2023-02-28T09:40:52;1.90;99.90
3478;DHT22;37937;61.490;23.506;2023-02-28T09:43:20;2.10;99.90
3478;DHT22;37937;61.490;23.506;2023-02-28T09:45:48;2.20;99.90
3478;DHT22;37937;61.490;23.506;2023-02-28T09:48:23;1.90;99.90
3478;DHT22;37937;61.490;23.506;2023-02-28T09:50:50;1.80;99.90
3478;DHT22;37937;61.490;23.506;2023-02-28T09:53:21;1.40;99.90
3478;DHT22;37937;61.490;23.506;2023-02-28T09:56:21;1.30;99.90
3478;DHT22;37937;61.490;23.506;2023-02-28T09:58:49;1.30;99.90
3478;DHT22;37937;61.490;23.506;2023-02-28T10:04:08;1.30;99.90
3478;DHT22;37937;61.490;23.506;2023-02-28T10:06:39;1.50;99.90
3478;DHT22;37937;61.490;23.506;2023-02-28T10:09:11;1.80;99.90
3478;DHT22;37937;61.490;23.506;2023-02-28T10:11:38;1.90;99.90
3478;DHT22;37937;61.490;23.506;2023-02-28T10:14:27;1.80;99.90
3478;DHT22;37937;61.490;23.506;2023-02-28T10:19:35;1.40;99.90
3478;DHT22;37937;61.490;23.506;2023-02-28T10:24:33;1.70;99.90
3478;DHT22;37937;61.490;23.506;2023-02-28T10:27:01;1.70;99.90
3478;DHT22;37937;61.490;23.506;2023-02-28T10:29:31;1.60;99.90
3478;DHT22;37937;61.490;23.506;2023-02-28T10:31:57;1.50;99.90
3478;DHT22;37937;61.490;23.506;2023-02-28T10:34:24;1.70;99.90
3478;DHT22;37937;61.490;23.506;2023-02-28T10:36:49;1.70;99.90
3478;DHT22;37937;61.490;23.506;2023-02-28T10:39:33;1.70;99.90
3478;DHT22;37937;61.490;23.506;2023-02-28T10:41:59;1.50;99.90
3478;DHT22;37937;61.490;23.506;2023-02-28T10:44:25;1.40;99.90
3478;DHT22;37937;61.490;23.506;2023-02-28T10:46:50;1.40;99.90
3478;DHT22;37937;61.490;23.506;2023-02-28T10:49:23;1.20;99.90
3478;DHT22;37937;61.490;23.506;2023-02-28T10:51:51;1.30;99.90
3478;DHT22;37937;61.490;23.506;2023-02-28T10:54:22;1.40;99.90
3478;DHT22;37937;61.490;23.506;2023-02-28T10:59:33;1.40;99.90
3478;DHT22;37937;61.490;23.506;2023-02-28T11:01:59;1.40;99.90
3478;DHT22;37937;61.490;23.506;2023-02-28T11:07:02;1.30;99.90
3478;DHT22;37937;61.490;23.506;2023-02-28T11:09:38;1.40;99.90
3478;DHT22;37937;61.490;23.506;2023-02-28T11:12:08;1.40;99.90
3478;DHT22;37937;61.490;23.506;2023-02-28T11:14:49;1.30;99.90
3478;DHT22;37937;61.490;23.506;2023-02-28T11:17:19;1.30;99.90
3478;DHT22;37937;61.490;23.506;2023-02-28T11:19:46;1.20;99.90
3478;DHT22;37937;61.490;23.506;2023-02-28T11:22:16;1.20;99.90
3478;DHT22;37937;61.490;23.506;2023-02-28T11:24:44;1.20;99.90
3478;DHT22;37937;61.490;23.506;2023-02-28T11:29:55;1.30;99.90
3478;DHT22;37937;61.490;23.506;2023-02-28T11:32:24;1.40;99.90
3478;DHT22;37937;61.490;23.506;2023-02-28T11:35:03;1.50;99.90
3478;DHT22;37937;61.490;23.506;2023-02-28T11:37:30;1.50;99.90
3478;DHT22;37937;61.490;23.506;2023-02-28T11:39:56;1.50;99.90
3478;DHT22;37937;61.490;23.506;2023-02-28T11:55:27;1.30;99.90
3478;DHT22;37937;61.490;23.506;2023-02-28T12:00:30;1.30;99.90
3478;DHT22;37937;61.490;23.506;2023-02-28T12:05:27;1.20;99.90
3478;DHT22;37937;61.490;23.506;2023-02-28T12:12:53;1.10;99.90
3478;DHT22;37937;61.490;23.506;2023-02-28T12:28:24;1.70;99.90
3478;DHT22;37937;61.490;23.506;2023-02-28T12:31:01;1.60;99.90
3478;DHT22;37937;61.490;23.506;2023-02-28T12:33:34;1.60;99.90
3478;DHT22;37937;61.490;23.506;2023-02-28T12:36:01;1.60;99.90
3478;DHT22;37937;61.490;23.506;2023-02-28T12:38:29;1.40;99.90
3478;DHT22;37937;61.490;23.506;2023-02-28T12:40:58;1.30;99.90
3478;DHT22;37937;61.490;23.506;2023-02-28T12:43:27;1.40;99.90
3478;DHT22;37937;61.490;23.506;2023-02-28T12:46:02;1.40;99.90
3478;DHT22;37937;61.490;23.506;2023-02-28T12:48:37;1.30;99.90
3478;DHT22;37937;61.490;23.506;2023-02-28T12:51:05;1.40;99.90
3478;DHT22;37937;61.490;23.506;2023-02-28T12:53:35;1.50;99.90
3478;DHT22;37937;61.490;23.506;2023-02-28T12:58:53;1.80;99.90
3478;DHT22;37937;61.490;23.506;2023-02-28T13:09:20;1.80;99.90
3478;DHT22;37937;61.490;23.506;2023-02-28T13:11:47;1.70;99.90
3478;DHT22;37937;61.490;23.506;2023-02-28T13:14:29;1.70;99.90
3478;DHT22;37937;61.490;23.506;2023-02-28T13:17:10;1.50;99.90
3478;DHT22;37937;61.490;23.506;2023-02-28T13:20:14;1.40;99.90
3478;DHT22;37937;61.490;23.506;2023-02-28T13:22:38;1.40;99.90
3478;DHT22;37937;61.490;23.506;2023-02-28T13:27:48;1.40;99.90
3478;DHT22;37937;61.490;23.506;2023-02-28T13:35:44;1.40;99.90
3478;DHT22;37937;61.490;23.506;2023-02-28T13:38:16;1.40;99.90
3478;DHT22;37937;61.490;23.506;2023-02-28T13:40:42;1.40;99.90
3478;DHT22;37937;61.490;23.506;2023-02-28T13:43:08;1.60;99.90
3478;DHT22;37937;61.490;23.506;2023-02-28T13:45:34;1.60;99.90
3478;DHT22;37937;61.490;23.506;2023-02-28T13:48:19;1.60;99.90
3478;DHT22;37937;61.490;23.506;2023-02-28T13:50:44;1.60;99.90
3478;DHT22;37937;61.490;23.506;2023-02-28T14:01:10;1.50;99.90
3478;DHT22;37937;61.490;23.506;2023-02-28T14:06:29;1.60;99.90
3478;DHT22;37937;61.490;23.506;2023-02-28T14:08:57;1.60;99.90
3478;DHT22;37937;61.490;23.506;2023-02-28T14:11:27;1.50;99.90
3478;DHT22;37937;61.490;23.506;2023-02-28T14:13:53;1.40;99.90
3478;DHT22;37937;61.490;23.506;2023-02-28T14:16:23;1.30;99.90
3478;DHT22;37937;61.490;23.506;2023-02-28T14:18:56;1.20;99.90
3478;DHT22;37937;61.490;23.506;2023-02-28T14:21:27;1.20;99.90
3478;DHT22;37937;61.490;23.506;2023-02-28T14:24:08;1.20;99.90
3478;DHT22;37937;61.490;23.506;2023-02-28T14:31:39;1.20;99.90
3478;DHT22;37937;61.490;23.506;2023-02-28T14:36:52;1.10;99.90
3478;DHT22;37937;61.490;23.506;2023-02-28T14:39:20;1.10;99.90
3478;DHT22;37937;61.490;23.506;2023-02-28T14:41:46;1.10;99.90
3478;DHT22;37937;61.490;23.506;2023-02-28T14:44:25;1.00;99.90
3478;DHT22;37937;61.490;23.506;2023-02-28T14:46:54;1.00;99.90
3478;DHT22;37937;61.490;23.506;2023-02-28T14:49:21;1.00;99.90
3478;DHT22;37937;61.490;23.506;2023-02-28T14:51:49;0.90;99.90
3478;DHT22;37937;61.490;23.506;2023-02-28T14:54:16;0.90;99.90
3478;DHT22;37937;61.490;23.506;2023-02-28T14:56:44;0.90;99.90
3478;DHT22;37937;61.490;23.506;2023-02-28T15:02:18;0.60;99.90
3478;DHT22;37937;61.490;23.506;2023-02-28T15:04:52;0.60;99.90
3478;DHT22;37937;61.490;23.506;2023-02-28T15:07:17;0.50;99.90
3478;DHT22;37937;61.490;23.506;2023-02-28T15:09:43;0.50;99.90
3478;DHT22;37937;61.490;23.506;2023-02-28T15:12:12;0.50;99.90
3478;DHT22;37937;61.490;23.506;2023-02-28T15:14:39;0.40;99.90
3478;DHT22;37937;61.490;23.506;2023-02-28T15:17:08;0.40;99.90
3478;DHT22;37937;61.490;23.506;2023-02-28T15:19:36;0.40;99.90
3478;DHT22;37937;61.490;23.506;2023-02-28T15:22:07;0.30;99.90
3478;DHT22;37937;61.490;23.506;2023-02-28T15:27:15;0.40;99.90
3478;DHT22;37937;61.490;23.506;2023-02-28T15:29:43;0.40;99.90
3478;DHT22;37937;61.490;23.506;2023-02-28T15:34:52;0.30;99.90
3478;DHT22;37937;61.490;23.506;2023-02-28T15:39:54;0.30;99.90
3478;DHT22;37937;61.490;23.506;2023-02-28T15:42:21;0.30;99.90
3478;DHT22;37937;61.490;23.506;2023-02-28T15:44:47;0.30;99.90
3478;DHT22;37937;61.490;23.506;2023-02-28T15:47:17;0.20;99.90
3478;DHT22;37937;61.490;23.506;2023-02-28T15:52:13;0.20;99.90
3478;DHT22;37937;61.490;23.506;2023-02-28T15:54:39;0.20;99.90
3478;DHT22;37937;61.490;23.506;2023-02-28T15:57:05;0.20;99.90
3478;DHT22;37937;61.490;23.506;2023-02-28T15:59:34;0.10;99.90
3478;DHT22;37937;61.490;23.506;2023-02-28T16:04:35;0.10;99.90
3478;DHT22;37937;61.490;23.506;2023-02-28T16:07:04;0.10;99.90
3478;DHT22;37937;61.490;23.506;2023-02-28T16:09:31;0.10;99.90
3478;DHT22;37937;61.490;23.506;2023-02-28T16:11:59;0.10;99.90
3478;DHT22;37937;61.490;23.506;2023-02-28T16:14:27;0.10;99.90
3478;DHT22;37937;61.490;23.506;2023-02-28T16:16:54;0.10;99.90
3478;DHT22;37937;61.490;23.506;2023-02-28T16:19:20;0.10;99.90
3478;DHT22;37937;61.490;23.506;2023-02-28T16:21:46;0.00;99.90
3478;DHT22;37937;61.490;23.506;2023-02-28T16:24:12;0.00;99.90
3478;DHT22;37937;61.490;23.506;2023-02-28T16:26:39;0.00;99.90
3478;DHT22;37937;61.490;23.506;2023-02-28T16:29:05;-0.10;99.90
3478;DHT22;37937;61.490;23.506;2023-02-28T16:31:32;-0.10;99.90
3478;DHT22;37937;61.490;23.506;2023-02-28T16:34:00;-0.10;99.90
3478;DHT22;37937;61.490;23.506;2023-02-28T16:36:25;-0.10;99.90
3478;DHT22;37937;61.490;23.506;2023-02-28T16:38:51;-0.10;99.90
3478;DHT22;37937;61.490;23.506;2023-02-28T16:41:20;-0.10;99.90
3478;DHT22;37937;61.490;23.506;2023-02-28T16:43:47;-0.10;99.90
3478;DHT22;37937;61.490;23.506;2023-02-28T16:46:14;-0.10;99.90
3478;DHT22;37937;61.490;23.506;2023-02-28T16:48:40;-0.20;99.90
3478;DHT22;37937;61.490;23.506;2023-02-28T16:51:11;-0.20;99.90
3478;DHT22;37937;61.490;23.506;2023-02-28T16:53:37;-0.10;99.90
3478;DHT22;37937;61.490;23.506;2023-02-28T16:56:02;-0.20;99.90
3478;DHT22;37937;61.490;23.506;2023-02-28T16:58:29;-0.20;99.90
3478;DHT22;37937;61.490;23.506;2023-02-28T17:00:55;-0.20;99.90
3478;DHT22;37937;61.490;23.506;2023-02-28T17:05:46;-0.10;99.90
3478;DHT22;37937;61.490;23.506;2023-02-28T17:08:11;-0.10;99.90
3478;DHT22;37937;61.490;23.506;2023-02-28T17:10:37;-0.10;99.90
3478;DHT22;37937;61.490;23.506;2023-02-28T17:13:02;-0.10;99.90
3478;DHT22;37937;61.490;23.506;2023-02-28T17:15:28;-0.10;99.90
3478;DHT22;37937;61.490;23.506;2023-02-28T17:17:54;-0.10;99.90
3478;DHT22;37937;61.490;23.506;2023-02-28T17:20:21;-0.20;99.90
3478;DHT22;37937;61.490;23.506;2023-02-28T17:22:48;-0.20;99.90
3478;DHT22;37937;61.490;23.506;2023-02-28T17:25:13;-0.10;99.90
3478;DHT22;37937;61.490;23.506;2023-02-28T17:27:39;-0.10;99.90
3478;DHT22;37937;61.490;23.506;2023-02-28T17:30:15;-0.10;99.90
3478;DHT22;37937;61.490;23.506;2023-02-28T17:32:41;-0.10;99.90
3478;DHT22;37937;61.490;23.506;2023-02-28T17:35:07;-0.20;99.90
3478;DHT22;37937;61.490;23.506;2023-02-28T17:37:32;-0.20;99.90
3478;DHT22;37937;61.490;23.506;2023-02-28T17:39:58;-0.20;99.90
3478;DHT22;37937;61.490;23.506;2023-02-28T17:42:24;-0.10;99.90
3478;DHT22;37937;61.490;23.506;2023-02-28T17:44:49;-0.10;99.90
3478;DHT22;37937;61.490;23.506;2023-02-28T17:47:15;-0.20;99.90
3478;DHT22;37937;61.490;23.506;2023-02-28T17:49:40;-0.20;99.90
3478;DHT22;37937;61.490;23.506;2023-02-28T17:52:07;-0.20;99.90
3478;DHT22;37937;61.490;23.506;2023-02-28T17:54:32;-0.10;99.90
3478;DHT22;37937;61.490;23.506;2023-02-28T17:56:58;-0.10;99.90
3478;DHT22;37937;61.490;23.506;2023-02-28T17:59:24;-0.10;99.90
3478;DHT22;37937;61.490;23.506;2023-02-28T18:01:49;-0.10;99.90
3478;DHT22;37937;61.490;23.506;2023-02-28T18:04:15;-0.10;99.90
3478;DHT22;37937;61.490;23.506;2023-02-28T18:06:41;-0.10;99.90
3478;DHT22;37937;61.490;23.506;2023-02-28T18:09:16;-0.10;99.90
3478;DHT22;37937;61.490;23.506;2023-02-28T18:11:41;-0.20;99.90
3478;DHT22;37937;61.490;23.506;2023-02-28T18:14:09;-0.10;99.90
3478;DHT22;37937;61.490;23.506;2023-02-28T18:16:34;-0.10;99.90
3478;DHT22;37937;61.490;23.506;2023-02-28T18:19:00;-0.10;99.90